createdAt,value
2022-12-18T00:00:10.508Z,95.92
2022-12-18T00:05:13.360Z,95.97
2022-12-18T00:10:16.397Z,96.19
2022-12-18T00:15:19.475Z,96.42
2022-12-18T00:20:26.640Z,95.75
2022-12-18T00:25:29.586Z,95.76
2022-12-18T00:30:32.434Z,95.87
2022-12-18T00:35:35.387Z,95.83
2022-12-18T00:40:38.322Z,95.59
2022-12-18T00:45:42.206Z,96.06
2022-12-18T00:50:45.232Z,95.71
2022-12-18T00:55:48.462Z,96.01
2022-12-18T01:00:51.304Z,96.44
2022-12-18T01:05:54.284Z,96.45
2022-12-18T01:10:57.196Z,96.61
2022-12-18T01:16:00.697Z,96.48
2022-12-18T01:21:12.948Z,96.98
2022-12-18T01:26:17.442Z,96.75
2022-12-18T01:31:24.350Z,96.99
2022-12-18T01:36:30.832Z,97.07
2022-12-18T01:41:54.425Z,96.87
2022-12-18T01:46:57.383Z,96.71
2022-12-18T01:52:00.407Z,96.52
2022-12-18T01:57:03.541Z,96.58
2022-12-18T02:02:07.344Z,96.64
2022-12-18T02:08:13.552Z,96.83
2022-12-18T02:14:23.773Z,97.10
2022-12-18T02:19:30.216Z,96.77
2022-12-18T02:25:14.126Z,97.21
2022-12-18T02:30:18.398Z,97.50
2022-12-18T02:35:30.069Z,97.82
2022-12-18T02:40:33.883Z,98.27
2022-12-18T02:45:36.957Z,98.36
2022-12-18T02:50:50.205Z,98.56
2022-12-18T02:56:25.400Z,98.87
2022-12-18T03:02:19.512Z,98.74
2022-12-18T03:07:37.769Z,99.06
2022-12-18T03:12:55.601Z,98.97
2022-12-18T03:18:23.900Z,99.15
2022-12-18T03:23:35.956Z,99.32
2022-12-18T03:28:46.986Z,99.43
2022-12-18T03:33:57.738Z,99.40
2022-12-18T03:39:00.740Z,99.54
2022-12-18T03:44:34.761Z,99.60
2022-12-18T03:50:12.282Z,99.88
2022-12-18T03:55:16.332Z,100.00
2022-12-18T04:00:20.736Z,99.94
2022-12-18T04:05:27.185Z,100.00
2022-12-18T04:10:30.662Z,100.00
2022-12-18T04:15:37.553Z,100.00
2022-12-18T04:20:40.577Z,100.00
2022-12-18T04:25:43.578Z,100.00
2022-12-18T04:30:49.223Z,100.00
2022-12-18T04:35:52.264Z,100.00
2022-12-18T04:40:55.101Z,100.00
2022-12-18T04:46:09.362Z,100.00
2022-12-18T04:51:12.398Z,100.00
2022-12-18T04:56:16.725Z,100.00
2022-12-18T05:01:20.521Z,100.00
2022-12-18T05:06:23.431Z,100.00
2022-12-18T05:11:26.302Z,100.00
2022-12-18T05:16:29.334Z,100.00
2022-12-18T05:21:32.373Z,100.00
2022-12-18T05:26:35.802Z,100.00
2022-12-18T05:31:39.810Z,100.00
2022-12-18T05:36:42.981Z,100.00
2022-12-18T05:41:46.184Z,100.00
2022-12-18T05:46:49.879Z,100.00
2022-12-18T05:51:52.759Z,100.00
2022-12-18T05:56:55.535Z,100.00
2022-12-18T06:01:58.651Z,100.00
2022-12-18T06:07:04.140Z,100.00
2022-12-18T06:12:07.472Z,100.00
2022-12-18T06:17:10.390Z,100.00
2022-12-18T06:22:13.352Z,100.00
2022-12-18T06:27:16.214Z,100.00
2022-12-18T06:44:00.314Z,100.00
2022-12-18T06:49:03.939Z,100.00
2022-12-18T06:54:06.873Z,100.00
2022-12-18T06:59:09.753Z,100.00
2022-12-18T07:04:13.074Z,100.00
2022-12-18T07:09:15.993Z,100.00
2022-12-18T07:14:19.752Z,100.00
2022-12-18T07:19:25.663Z,100.00
2022-12-18T07:24:29.439Z,100.00
2022-12-18T07:29:32.490Z,100.00
2022-12-18T07:34:35.853Z,100.00
2022-12-18T07:39:39.579Z,100.00
2022-12-18T07:44:42.547Z,100.00
2022-12-18T07:49:45.334Z,100.00
2022-12-18T07:54:50.921Z,100.00
2022-12-18T07:59:53.868Z,100.00
2022-12-18T08:04:56.723Z,100.00
2022-12-18T08:09:59.559Z,100.00
2022-12-18T08:15:02.735Z,100.00
2022-12-18T08:20:06.357Z,100.00
2022-12-18T08:25:10.202Z,100.00
2022-12-18T08:30:13.636Z,100.00
2022-12-18T08:35:18.811Z,98.91
2022-12-18T08:40:21.747Z,96.84
2022-12-18T08:45:25.807Z,95.60
2022-12-18T08:50:29.210Z,93.39
2022-12-18T08:55:32.271Z,92.09
2022-12-18T09:00:35.193Z,91.54
2022-12-18T09:05:38.079Z,91.28
2022-12-18T09:10:49.699Z,90.92
2022-12-18T09:15:55.432Z,90.93
2022-12-18T09:20:58.319Z,90.46
2022-12-18T09:26:01.438Z,90.41
2022-12-18T09:31:09.884Z,90.52
2022-12-18T09:36:17.694Z,90.19
2022-12-18T09:41:48.402Z,90.38
2022-12-18T09:47:20.058Z,90.77
2022-12-18T09:52:41.291Z,90.73
2022-12-18T09:57:53.379Z,90.57
2022-12-18T10:03:15.263Z,90.52
2022-12-18T10:09:21.669Z,90.46
2022-12-18T10:14:57.434Z,90.25
2022-12-18T10:20:17.104Z,90.15
2022-12-18T10:25:41.072Z,90.11
2022-12-18T10:30:44.657Z,89.95
2022-12-18T10:35:51.403Z,89.75
2022-12-18T10:40:58.566Z,89.87
2022-12-18T10:46:09.814Z,89.79
2022-12-18T10:51:31.657Z,89.51
2022-12-18T10:56:37.818Z,88.44
2022-12-18T11:01:58.836Z,88.27
2022-12-18T11:07:09.061Z,87.76
2022-12-18T11:12:11.881Z,87.60
2022-12-18T11:17:26.715Z,87.01
2022-12-18T11:22:36.349Z,86.75
2022-12-18T11:27:41.210Z,86.55
2022-12-18T11:33:02.248Z,86.29
2022-12-18T11:38:36.168Z,85.93
2022-12-18T11:43:47.319Z,85.83
2022-12-18T11:49:36.033Z,85.23
2022-12-18T11:54:39.719Z,84.62
2022-12-18T12:00:12.805Z,84.77
2022-12-18T12:05:49.846Z,84.21
2022-12-18T12:11:20.539Z,83.66
2022-12-18T12:16:33.775Z,83.44
2022-12-18T12:22:05.718Z,82.81
2022-12-18T12:28:05.844Z,82.59
2022-12-18T12:33:32.543Z,82.37
2022-12-18T12:38:52.264Z,82.36
2022-12-18T12:44:00.304Z,82.11
2022-12-18T12:49:11.030Z,81.60
2022-12-18T12:54:25.850Z,81.04
2022-12-18T13:00:04.178Z,81.09
2022-12-18T13:05:35.382Z,81.40
2022-12-18T13:10:43.189Z,80.82
2022-12-18T13:16:06.568Z,80.25
2022-12-18T13:21:28.076Z,80.46
2022-12-18T13:26:32.970Z,80.68
2022-12-18T13:31:42.201Z,80.95
2022-12-18T13:36:47.298Z,80.95
2022-12-18T13:42:32.394Z,80.67
2022-12-18T13:47:39.032Z,80.78
2022-12-18T13:52:44.645Z,80.74
2022-12-18T13:57:47.560Z,80.88
2022-12-18T14:02:51.987Z,80.96
2022-12-18T14:08:16.213Z,81.69
2022-12-18T14:13:34.978Z,82.39
2022-12-18T14:18:45.335Z,82.66
2022-12-18T14:23:48.461Z,83.18
2022-12-18T14:28:51.998Z,84.01
2022-12-18T14:33:55.527Z,84.68
2022-12-18T14:39:00.353Z,85.22
2022-12-18T14:44:09.427Z,86.31
2022-12-18T14:49:35.217Z,86.54
2022-12-18T14:54:39.333Z,87.18
2022-12-18T14:59:42.442Z,87.76
2022-12-18T15:04:46.023Z,88.32
2022-12-18T15:10:14.116Z,88.93
2022-12-18T15:15:38.325Z,89.31
2022-12-18T15:20:50.294Z,89.03
2022-12-18T15:26:11.381Z,89.17
2022-12-18T15:31:14.372Z,89.23
2022-12-18T15:36:21.337Z,89.65
2022-12-18T15:41:32.868Z,89.41
2022-12-18T15:46:37.848Z,89.97
2022-12-18T15:51:41.668Z,89.91
2022-12-18T15:57:02.885Z,90.41
2022-12-18T16:02:18.127Z,90.72
2022-12-18T16:07:24.877Z,90.87
2022-12-18T16:12:28.628Z,91.43
2022-12-18T16:17:32.013Z,91.70
2022-12-18T16:22:34.827Z,92.11
2022-12-18T16:27:37.712Z,92.59
2022-12-18T16:32:40.585Z,92.81
2022-12-18T16:37:44.298Z,93.25
2022-12-18T16:42:47.721Z,93.76
2022-12-18T16:47:50.536Z,94.02
2022-12-18T16:52:53.436Z,94.10
2022-12-18T16:57:57.413Z,94.12
2022-12-18T17:03:00.452Z,94.78
2022-12-18T17:08:03.982Z,94.53
2022-12-18T17:13:06.864Z,94.96
2022-12-18T17:18:09.840Z,95.24
2022-12-18T17:23:12.676Z,95.57
2022-12-18T17:28:15.564Z,96.00
2022-12-18T17:33:18.781Z,96.16
2022-12-18T17:38:21.674Z,96.38
2022-12-18T17:43:24.565Z,96.65
2022-12-18T17:48:27.424Z,96.65
2022-12-18T17:53:31.411Z,97.17
2022-12-18T17:58:37.826Z,96.97
2022-12-18T18:03:42.489Z,97.50
2022-12-18T18:08:45.837Z,97.67
2022-12-18T18:14:04.656Z,97.96
2022-12-18T18:19:12.386Z,98.13
2022-12-18T18:24:20.170Z,98.40
2022-12-18T18:29:26.911Z,98.60
2022-12-18T18:34:33.045Z,98.79
2022-12-18T18:39:36.581Z,99.55
2022-12-18T18:44:41.369Z,99.59
2022-12-18T18:49:47.433Z,99.84
2022-12-18T18:55:11.469Z,100.00
2022-12-18T19:00:16.488Z,100.00
2022-12-18T19:05:19.370Z,100.00
2022-12-18T19:10:22.208Z,100.00
2022-12-18T19:15:25.178Z,100.00
2022-12-18T19:20:28.551Z,100.00
2022-12-18T19:25:40.697Z,100.00
2022-12-18T19:30:45.928Z,100.00
2022-12-18T19:35:49.365Z,100.00
2022-12-18T19:40:52.567Z,100.00
2022-12-18T19:45:56.347Z,100.00
2022-12-18T19:50:59.286Z,100.00
2022-12-18T19:56:11.771Z,100.00
2022-12-18T20:01:16.918Z,100.00
2022-12-18T20:06:36.298Z,100.00
2022-12-18T20:11:41.993Z,100.00
2022-12-18T20:16:45.198Z,100.00
2022-12-18T20:21:48.420Z,100.00
2022-12-18T20:26:51.204Z,100.00
2022-12-18T20:31:54.269Z,100.00
2022-12-18T20:36:57.133Z,100.00
2022-12-18T20:42:00.871Z,100.00
2022-12-18T20:47:05.747Z,100.00
2022-12-18T20:52:11.840Z,100.00
2022-12-18T20:57:15.247Z,100.00
2022-12-18T21:02:21.286Z,100.00
2022-12-18T21:07:24.408Z,100.00
2022-12-18T21:12:42.737Z,100.00
2022-12-18T21:17:53.914Z,100.00
2022-12-18T21:22:57.721Z,100.00
2022-12-18T21:28:07.175Z,100.00
2022-12-18T21:33:10.992Z,100.00
2022-12-18T21:38:14.295Z,100.00
2022-12-18T21:43:35.383Z,100.00
2022-12-18T21:48:43.350Z,100.00
2022-12-18T21:53:46.276Z,100.00
2022-12-18T21:58:56.800Z,100.00
2022-12-18T22:04:00.353Z,100.00
2022-12-18T22:09:04.532Z,100.00
2022-12-18T22:14:07.879Z,100.00
2022-12-18T22:19:12.524Z,100.00
2022-12-18T22:24:22.282Z,100.00
2022-12-18T22:29:44.684Z,100.00
2022-12-18T22:34:47.559Z,100.00
2022-12-18T22:39:50.460Z,100.00
2022-12-18T22:44:53.409Z,100.00
2022-12-18T22:49:56.317Z,100.00
2022-12-18T22:54:59.207Z,100.00
2022-12-18T23:00:02.731Z,100.00
2022-12-18T23:05:06.866Z,100.00
2022-12-18T23:10:10.070Z,100.00
2022-12-18T23:15:12.905Z,100.00
2022-12-18T23:20:17.651Z,100.00
2022-12-18T23:25:20.576Z,100.00
2022-12-18T23:30:23.940Z,100.00
2022-12-18T23:35:26.880Z,100.00
2022-12-18T23:40:30.209Z,100.00
2022-12-18T23:45:38.665Z,100.00
2022-12-18T23:50:41.500Z,100.00
2022-12-18T23:55:45.579Z,100.00
